Terminal Aerodrome Forecast
Issued by NWS

Home | Current Version | Previous Version | Graphics & Text | Print | Product List | Glossary On
Versions: 1 2 3 4 5 6 7 8 9 10 11 12 13 14 15 16 17 18 19 20
000
FTUS42 KMHX 181700 RRA
TAFOAJ
TAF
KOAJ 181744Z 1818/1918 22007KT P6SM SCT070
     FM181900 20007KT P6SM VCTS SCT025 BKN050CB
     FM190300 20004KT P6SM VCSH SCT050 BKN100
     FM190600 21004KT 4SM BR SCT050 BKN100
     FM191300 26007KT P6SM SCT035 BKN120
      AMD LTD TO CLD VIS AND WIND=

USA.gov is the U.S. government's official web portal to all federal, state and local government web resources and services.